1948 Tropical Low NOT_NAMED (1948100S16125)


IBTrACS version v04r00. Visit IBTrACS website for data access.
Please direct all questions to the IBTrACS Q and A forum

Storm track - Intensity - Wind Radii - Intensity Data - Source Data - All data

Summary Information

Storm ID 1948100S16125
Start Apr 8 23Z
End Apr 14 01Z
ATCF IDs ,SH221948
Track status Best track data.

Storm track plot

Map of storm track

Intensity plots

Map of storm track

Radial wind information

No radial wind information for this storm


Position and Intensity Table

BASIN ISO_TIME_________ NATURE LAT LON WMO PRES BOM PRES
degrees north degrees east mb mb
SI 1948-04-08 23:00:00 NR -15.90 124.60
SI 1948-04-09 00:00:00 TS -15.98 124.50
SI 01:00:00 TS -15.91 124.28 1002 1002
SI 03:00:00 TS -15.97 124.03
SI 06:00:00 TS -16.08 123.69
SI 09:00:00 TS -16.13 123.36
SI 11:00:00 TS -16.18 123.17
SI 12:00:00 TS -16.20 123.06
SI 15:00:00 TS -16.24 122.71
SI 18:00:00 TS -16.25 122.37
SI 21:00:00 TS -16.24 122.10
SI 23:00:00 TS -16.23 121.97
SI 1948-04-10 00:00:00 TS -16.21 121.93
SI 01:00:00 TS -16.21 121.88 1002 1002
SI 03:00:00 TS -16.19 121.83
SI 06:00:00 TS -16.16 121.82
SI 09:00:00 TS -16.12 121.84
SI 11:00:00 TS -16.09 121.86
SI 12:00:00 TS -16.07 121.86
SI 14:10:00 TS -16.05 121.85 1002 1002
SI 15:00:00 TS -16.05 121.84 1002
SI 18:00:00 TS -16.01 121.81 1002
SI 21:00:00 TS -15.93 121.80 1002
SI 23:00:00 TS -15.84 121.82 1002
SI 1948-04-11 00:00:00 TS -15.79 121.84 1002
SI 01:00:00 TS -15.73 121.88 1002 1002
SI 03:00:00 TS -15.59 122.00
SI 06:00:00 TS -15.35 122.20
SI 09:00:00 TS -15.08 122.38
SI 11:00:00 TS -14.89 122.46
SI 12:00:00 TS -14.79 122.49
SI 15:00:00 TS -14.48 122.50
SI 18:00:00 TS -14.19 122.43
SI 21:00:00 TS -13.94 122.31
SI 22:30:00 TS -13.85 122.22 1000 1000
SI 23:00:00 TS -13.83 122.19 1000
SI 1948-04-12 00:00:00 TS -13.81 122.12 1000
SI 01:00:00 TS -13.81 122.05 1000 1000
SI 03:00:00 TS -13.87 121.92
SI 06:00:00 TS -14.07 121.71
SI 09:00:00 TS -14.31 121.47
SI 11:00:00 TS -14.48 121.31
SI 12:00:00 TS -14.56 121.24
SI 15:00:00 TS -14.78 121.03
SI 18:00:00 TS -15.00 120.82
SI 21:00:00 TS -15.26 120.58
SI 23:00:00 TS -15.43 120.41
SI 1948-04-13 00:00:00 TS -15.49 120.25
SI 01:00:00 TS -15.55 120.08 1000 1000
SI 03:00:00 TS -15.67 119.81
SI 06:00:00 TS -15.87 119.40
SI 09:00:00 TS -16.07 119.03
SI 11:00:00 TS -16.21 118.77
SI 12:00:00 TS -16.25 118.54
SI 15:00:00 TS -16.43 117.99
SI 18:00:00 TS -16.57 117.25
SI 21:00:00 TS -16.68 116.33
SI 23:00:00 TS -16.77 115.85
SI 1948-04-14 00:00:00 TS -16.73 115.19
SI 01:00:00 NR -16.80 115.00 1002 1002

Source Information

Agency Information
USA bsh221948.txt
TOKYO
CMA
HKO
NEWDELHI
REUNION
BOM IDCKMSTM0S.csv:Line=1452:unnamed
NADI
WELLINGTON
DS824 s_hem.dat:495:22S
TD9636 cons_worldwide_trop_cyclone_18710101-19891231-006:Line=3319
TD9635
NEUMANN
MLC

All available IBTrACS Data

SEASON BASIN SUBBASIN ISO_TIME_________ NATURE LAT LON WMO PRES WMO AGENCY DIST2LAND LANDFALL IFLAG USA AGENCY USA ATCF_ID USA LAT USA LON USA SSHS BOM LAT BOM LON BOM PRES BOM PRES_METHOD DS824 LAT DS824 LON DS824 STAGE TD9636 LAT TD9636 LON TD9636 STAGE STORM SPEED STORM DIR
Year degrees north degrees east mb km km degrees north degrees east 1 degrees north degrees east mb degrees north degrees east degrees north degrees east kts degrees
1948 SI WA 1948-04-08 23:00:00 NR -15.90 124.60 0 0 __________O___ -1 -15.90 124.60 7 7 232
1948 SI WA 1948-04-09 00:00:00 TS -15.98 124.50 0 0 O________OP___ jtwc_sh SH221948 -16.00 124.50 -1 -16.00 124.50 TC -15.95 124.50 7 9 269
1948 SI WA 01:00:00 TS -15.91 124.28 1002 bom 21 21 P_____O__PP___ SH221948 -16.06 124.38 -1 -15.00 123.50 1002 -16.06 124.38 TC -16.01 124.40 7 9 271
1948 SI WA 03:00:00 TS -15.97 124.03 30 11 P_____P__PP___ SH221948 -16.17 124.14 -1 -15.11 123.35 -16.17 124.14 TC -16.11 124.20 7 7 253
1948 SI WA 06:00:00 TS -16.08 123.69 11 11 O_____P__OP___ jtwc_sh SH221948 -16.30 123.80 -1 -15.28 123.12 -16.30 123.80 TC -16.25 123.89 7 7 256
1948 SI WA 09:00:00 TS -16.13 123.36 30 30 P_____P__PP___ SH221948 -16.37 123.51 -1 -15.43 122.90 -16.37 123.51 TC -16.36 123.55 7 6 259
1948 SI WA 11:00:00 TS -16.18 123.17 39 35 P_____P__PO___ SH221948 -16.39 123.31 -1 -15.53 122.75 -16.39 123.31 TC -16.40 123.30 7 6 257
1948 SI WA 12:00:00 TS -16.20 123.06 35 33 O_____P__OP___ jtwc_sh SH221948 -16.40 123.20 -1 -15.58 122.69 -16.40 123.20 TC -16.41 123.17 7 7 262
1948 SI WA 15:00:00 TS -16.24 122.71 39 39 P_____P__PP___ SH221948 -16.42 122.79 -1 -15.71 122.49 -16.42 122.79 TC -16.42 122.76 7 7 265
1948 SI WA 18:00:00 TS -16.25 122.37 54 54 O_____P__OP___ jtwc_sh SH221948 -16.40 122.40 -1 -15.83 122.31 -16.40 122.40 TC -16.39 122.38 7 6 270
1948 SI WA 21:00:00 TS -16.24 122.10 85 85 P_____P__PP___ SH221948 -16.36 122.10 -1 -15.92 122.16 -16.36 122.10 TC -16.34 122.06 7 5 274
1948 SI WA 23:00:00 TS -16.23 121.97 93 93 P_____P__PO___ SH221948 -16.32 121.95 -1 -15.97 122.07 -16.32 121.95 TC -16.30 121.90 7 3 283
1948 SI WA 1948-04-10 00:00:00 TS -16.21 121.93 101 101 O_____P__OP___ jtwc_sh SH221948 -16.30 121.90 -1 -15.98 122.03 -16.30 121.90 TC -16.29 121.85 7 3 280
1948 SI WA 01:00:00 TS -16.21 121.88 1002 bom 101 101 P_____O__PP___ SH221948 -16.28 121.86 -1 -16.00 122.00 1002 -16.28 121.86 TC -16.27 121.82 7 2 278
1948 SI WA 03:00:00 TS -16.19 121.83 108 108 P_____P__PP___ SH221948 -16.25 121.81 -1 -16.02 121.94 -16.25 121.81 TC -16.25 121.78 7 1 313
1948 SI WA 06:00:00 TS -16.16 121.82 108 108 O_____P__OP___ jtwc_sh SH221948 -16.20 121.80 -1 -16.03 121.87 -16.20 121.80 TC -16.20 121.80 7 1 18
1948 SI WA 09:00:00 TS -16.12 121.84 116 108 P_____P__PP___ SH221948 -16.15 121.84 -1 -16.02 121.81 -16.15 121.84 TC -16.14 121.86 7 1 28
1948 SI WA 11:00:00 TS -16.09 121.86 108 108 P_____P__PO___ SH221948 -16.12 121.88 -1 -16.01 121.77 -16.12 121.88 TC -16.10 121.90 7 1 0
1948 SI WA 12:00:00 TS -16.07 121.86 108 108 O_____P__OP___ jtwc_sh SH221948 -16.10 121.90 -1 -16.01 121.75 -16.10 121.90 TC -16.09 121.90 7 1 328
1948 SI WA 14:10:00 TS -16.05 121.85 1002 bom 108 116 P_____O__PP___ SH221948 -16.08 121.90 -1 -16.00 121.70 1002 -16.08 121.90 TC -16.06 121.90 7 1 0
1948 SI WA 15:00:00 TS -16.05 121.84 123 123 P_____P__PP___ SH221948 -16.06 121.90 -1 -16.01 121.67 1002 -16.06 121.90 TC -16.05 121.90 7 1 326
1948 SI WA 18:00:00 TS -16.01 121.81 123 123 O_____P__OP___ jtwc_sh SH221948 -16.00 121.90 -1 -16.03 121.53 1002 -16.00 121.90 TC -16.00 121.91 7 1 345
1948 SI WA 21:00:00 TS -15.93 121.80 131 131 P_____P__PP___ SH221948 -15.88 121.92 -1 -16.05 121.41 1002 -15.88 121.92 TC -15.90 121.95 7 2 0
1948 SI WA 23:00:00 TS -15.84 121.82 139 139 P_____P__PO___ SH221948 -15.77 121.96 -1 -16.03 121.34 1002 -15.77 121.96 TC -15.80 122.00 7 3 16
1948 SI WA 1948-04-11 00:00:00 TS -15.79 121.84 139 131 O_____P__OP___ jtwc_sh SH221948 -15.70 122.00 -1 -16.02 121.32 1002 -15.70 122.00 TC -15.73 122.05 7 4 27
1948 SI WA 01:00:00 TS -15.73 121.88 1002 bom 139 139 P_____O__PP___ SH221948 -15.63 122.05 -1 -16.00 121.30 1002 -15.63 122.05 TC -15.66 122.10 7 5 37
1948 SI WA 03:00:00 TS -15.59 122.00 139 139 P_____P__PP___ SH221948 -15.47 122.19 -1 -15.94 121.38 -15.47 122.19 TC -15.49 122.22 7 6 40
1948 SI WA 06:00:00 TS -15.35 122.20 144 144 O_____P__OP___ jtwc_sh SH221948 -15.20 122.40 -1 -15.80 121.60 -15.20 122.40 TC -15.20 122.40 7 6 36
1948 SI WA 09:00:00 TS -15.08 122.38 165 165 P_____P__PP___ SH221948 -14.91 122.55 -1 -15.62 121.88 -14.91 122.55 TC -14.90 122.54 7 6 29
1948 SI WA 11:00:00 TS -14.89 122.46 184 184 P_____P__PO___ SH221948 -14.70 122.59 -1 -15.47 122.06 -14.70 122.59 TC -14.70 122.60 7 6 19
1948 SI WA 12:00:00 TS -14.79 122.49 195 195 O_____P__OP___ jtwc_sh SH221948 -14.60 122.60 -1 -15.38 122.15 -14.60 122.60 TC -14.59 122.60 7 6 5
1948 SI WA 15:00:00 TS -14.48 122.50 227 227 P_____P__PP___ SH221948 -14.28 122.54 -1 -15.11 122.37 -14.28 122.54 TC -14.25 122.56 7 6 354
1948 SI WA 18:00:00 TS -14.19 122.43 262 262 O_____P__OP___ jtwc_sh SH221948 -14.00 122.40 -1 -14.81 122.48 -14.00 122.40 TC -13.95 122.46 7 6 341
1948 SI WA 21:00:00 TS -13.94 122.31 295 295 P_____P__PP___ SH221948 -13.77 122.26 -1 -14.47 122.41 -13.77 122.26 TC -13.75 122.31 7 5 328
1948 SI WA 22:30:00 TS -13.85 122.22 1000 bom 300 300 P_____O__PP___ SH221948 -13.71 122.18 -1 -14.30 122.30 1000 -13.71 122.18 TC -13.70 122.23 7 5 313
1948 SI WA 23:00:00 TS -13.83 122.19 310 310 P_____P__PO___ SH221948 -13.70 122.15 -1 -14.24 122.25 1000 -13.70 122.15 TC -13.70 122.20 7 4 296
1948 SI WA 1948-04-12 00:00:00 TS -13.81 122.12 314 314 O_____P__OP___ jtwc_sh SH221948 -13.70 122.10 -1 -14.11 122.13 1000 -13.70 122.10 TC -13.72 122.15 7 4 282
1948 SI WA 01:00:00 TS -13.81 122.05 1000 bom 314 310 P_____O__PP___ SH221948 -13.74 122.05 -1 -14.00 122.00 1000 4 -13.74 122.05 TC -13.76 122.10 7 4 253
1948 SI WA 03:00:00 TS -13.87 121.92 310 297 P_____P__PP___ SH221948 -13.88 121.96 -1 -13.83 121.76 -13.88 121.96 TC -13.88 121.99 7 5 232
1948 SI WA 06:00:00 TS -14.07 121.71 297 288 O_____P__OP___ jtwc_sh SH221948 -14.20 121.80 -1 -13.72 121.41 -14.20 121.80 TC -14.16 121.81 7 6 224
1948 SI WA 09:00:00 TS -14.31 121.47 288 282 P_____P__PP___ SH221948 -14.51 121.60 -1 -13.74 121.06 -14.51 121.60 TC -14.49 121.62 7 7 223
1948 SI WA 11:00:00 TS -14.48 121.31 282 280 P_____P__PO___ SH221948 -14.71 121.46 -1 -13.82 120.82 -14.71 121.46 TC -14.70 121.50 7 7 222
1948 SI WA 12:00:00 TS -14.56 121.24 280 270 O_____P__OP___ jtwc_sh SH221948 -14.80 121.40 -1 -13.88 120.70 -14.80 121.40 TC -14.78 121.45 7 6 222
1948 SI WA 15:00:00 TS -14.78 121.03 278 270 P_____P__PP___ SH221948 -15.01 121.25 -1 -14.10 120.33 -15.01 121.25 TC -15.01 121.29 7 6 222
1948 SI WA 18:00:00 TS -15.00 120.82 278 270 O_____P__OP___ jtwc_sh SH221948 -15.20 121.10 -1 -14.38 119.95 -15.20 121.10 TC -15.24 121.12 7 6 222
1948 SI WA 21:00:00 TS -15.26 120.58 270 270 P_____P__PP___ SH221948 -15.45 120.91 -1 -14.68 119.56 -15.45 120.91 TC -15.46 120.94 7 7 223
1948 SI WA 23:00:00 TS -15.43 120.41 278 270 P_____P__PO___ SH221948 -15.62 120.77 -1 -14.90 119.28 -15.62 120.77 TC -15.60 120.80 7 8 234
1948 SI WA 1948-04-13 00:00:00 TS -15.49 120.25 286 286 O_____P__OP___ jtwc_sh SH221948 -15.70 120.70 -1 -15.00 119.14 -15.70 120.70 TC -15.67 120.73 7 10 250
1948 SI WA 01:00:00 TS -15.55 120.08 1000 bom 295 288 P_____O__PP___ SH221948 -15.77 120.62 -1 -15.10 119.00 1000 -15.77 120.62 TC -15.74 120.65 7 9 247
1948 SI WA 03:00:00 TS -15.67 119.81 309 309 P_____P__PP___ SH221948 -15.91 120.46 -1 -15.29 118.71 -15.91 120.46 TC -15.87 120.48 7 9 244
1948 SI WA 06:00:00 TS -15.87 119.40 337 337 O_____P__OP___ jtwc_sh SH221948 -16.10 120.20 -1 -15.56 118.25 -16.10 120.20 TC -16.07 120.21 7 8 242
1948 SI WA 09:00:00 TS -16.07 119.03 366 366 P_____P__PP___ SH221948 -16.30 119.91 -1 -15.80 117.77 -16.30 119.91 TC -16.26 119.91 7 8 240
1948 SI WA 11:00:00 TS -16.21 118.77 382 382 P_____P__PO___ SH221948 -16.43 119.71 -1 -15.94 117.44 -16.43 119.71 TC -16.40 119.70 7 10 249
1948 SI WA 12:00:00 TS -16.25 118.54 409 409 O_____P__OP___ jtwc_sh SH221948 -16.50 119.60 -1 -16.01 117.27 -16.50 119.60 TC -16.47 119.59 7 12 254
1948 SI WA 15:00:00 TS -16.43 117.99 429 422 P_____P__PP___ SH221948 -16.70 119.26 -1 -16.21 116.76 -16.70 119.26 TC -16.69 119.25 7 13 256
1948 SI WA 18:00:00 TS -16.57 117.25 435 435 O_____P__OP___ jtwc_sh SH221948 -16.90 118.90 -1 -16.40 116.24 -16.90 118.90 TC -16.91 118.90 7 16 261
1948 SI WA 21:00:00 TS -16.68 116.33 438 429 ______P___P___ SH221948 -1 -16.58 115.71 TC -17.15 118.54 7 16 261
1948 SI WA 23:00:00 TS -16.77 115.85 435 435 ______P___O___ SH221948 -1 -16.69 115.36 TC -17.30 118.30 7 22 267
1948 SI WA 1948-04-14 00:00:00 TS -16.73 115.19 464 461 ______P_______ -1 -16.74 115.18 7 24 268
1948 SI WA 01:00:00 NR -16.80 115.00 1002 bom 461 ______O_______ -1 -16.80 115.00 1002 7 11 248